createdAt,value
2023-05-05T00:00:03.509Z,0.00
2023-05-05T00:01:03.496Z,0.00
2023-05-05T00:02:03.474Z,0.00
2023-05-05T00:03:03.541Z,0.00
2023-05-05T00:04:03.502Z,0.00
2023-05-05T00:05:03.430Z,0.00
2023-05-05T00:06:03.438Z,0.00
2023-05-05T00:07:03.423Z,0.00
2023-05-05T00:08:03.401Z,0.00
2023-05-05T00:09:03.382Z,0.00
2023-05-05T00:10:03.394Z,0.00
2023-05-05T00:11:03.380Z,0.00
2023-05-05T00:12:03.346Z,0.00
2023-05-05T00:13:03.350Z,0.00
2023-05-05T00:14:03.310Z,0.00
2023-05-05T00:15:03.330Z,0.00
2023-05-05T00:16:03.290Z,0.00
2023-05-05T00:17:03.318Z,0.00
2023-05-05T00:18:03.322Z,0.00
2023-05-05T00:19:03.248Z,0.00
2023-05-05T00:20:03.269Z,0.00
2023-05-05T00:21:03.235Z,0.00
2023-05-05T00:22:03.251Z,0.00
2023-05-05T00:23:03.219Z,0.00
2023-05-05T00:24:03.193Z,0.00
2023-05-05T00:25:03.172Z,0.00
2023-05-05T00:26:03.202Z,0.00
2023-05-05T00:27:03.143Z,0.00
2023-05-05T00:28:03.133Z,0.00
2023-05-05T00:29:03.207Z,0.00
2023-05-05T00:30:03.107Z,0.00
2023-05-05T00:31:03.196Z,0.00
2023-05-05T00:32:03.131Z,0.00
2023-05-05T00:33:03.131Z,0.00
2023-05-05T00:34:03.074Z,0.00
2023-05-05T00:35:03.084Z,0.00
2023-05-05T00:36:03.084Z,0.00
2023-05-05T00:37:03.046Z,0.00
2023-05-05T00:38:03.019Z,0.00
2023-05-05T00:39:03.002Z,0.00
2023-05-05T00:40:03.066Z,0.00
2023-05-05T00:41:03.059Z,0.00
2023-05-05T00:42:02.962Z,0.00
2023-05-05T00:43:02.974Z,0.00
2023-05-05T00:44:02.945Z,0.00
2023-05-05T00:45:02.934Z,0.00
2023-05-05T00:46:03.010Z,0.00
2023-05-05T00:47:02.906Z,0.00
2023-05-05T00:48:02.916Z,0.00
2023-05-05T00:49:02.928Z,0.00
2023-05-05T00:50:02.876Z,0.00
2023-05-05T00:51:02.870Z,0.00
2023-05-05T00:52:02.845Z,0.00
2023-05-05T00:53:02.847Z,0.00
2023-05-05T00:54:02.815Z,0.00
2023-05-05T00:55:02.822Z,0.00
2023-05-05T00:56:02.807Z,0.00
2023-05-05T00:57:02.781Z,0.00
2023-05-05T00:58:02.824Z,0.00
2023-05-05T00:59:02.750Z,0.00
2023-05-05T01:00:02.741Z,0.00
2023-05-05T01:01:02.753Z,0.00
2023-05-05T01:02:02.774Z,0.00
2023-05-05T01:03:10.199Z,0.00
2023-05-05T01:04:02.787Z,0.00
2023-05-05T01:05:02.684Z,0.00
2023-05-05T01:06:02.661Z,0.00
2023-05-05T01:07:02.668Z,0.00
2023-05-05T01:08:02.642Z,0.00
2023-05-05T01:09:02.630Z,0.00
2023-05-05T01:10:18.230Z,0.00
2023-05-05T01:11:02.631Z,0.00
2023-05-05T01:12:02.614Z,0.00
2023-05-05T01:13:02.643Z,0.00
2023-05-05T01:14:02.572Z,0.00
2023-05-05T01:15:02.548Z,0.00
2023-05-05T01:16:02.584Z,0.00
2023-05-05T01:17:02.542Z,0.00
2023-05-05T01:18:02.570Z,0.00
2023-05-05T01:19:02.499Z,0.00
2023-05-05T01:20:02.491Z,0.00
2023-05-05T01:21:02.482Z,0.00
2023-05-05T01:22:02.463Z,0.00
2023-05-05T01:23:02.483Z,0.00
2023-05-05T01:24:02.419Z,0.00
2023-05-05T01:25:02.433Z,0.00
2023-05-05T01:26:02.477Z,0.00
2023-05-05T01:27:02.400Z,0.00
2023-05-05T01:28:02.381Z,0.00
2023-05-05T01:29:02.398Z,0.00
2023-05-05T01:30:02.390Z,0.00
2023-05-05T01:31:02.336Z,0.00
2023-05-05T01:32:02.350Z,0.00
2023-05-05T01:33:02.318Z,0.00
2023-05-05T01:34:02.300Z,0.00
2023-05-05T01:35:02.324Z,0.00
2023-05-05T01:36:02.293Z,0.00
2023-05-05T01:37:02.290Z,0.00
2023-05-05T01:38:02.247Z,0.00
2023-05-05T01:39:02.249Z,0.00
2023-05-05T01:40:02.217Z,0.00
2023-05-05T01:41:02.232Z,0.00
2023-05-05T01:42:02.213Z,0.00
2023-05-05T01:43:02.198Z,0.00
2023-05-05T01:44:02.189Z,0.00
2023-05-05T01:45:02.163Z,0.00
2023-05-05T01:46:02.188Z,0.00
2023-05-05T01:47:02.157Z,0.00
2023-05-05T01:48:02.145Z,0.00
2023-05-05T01:49:02.121Z,0.00
2023-05-05T01:50:02.149Z,0.00
2023-05-05T01:51:02.076Z,0.00
2023-05-05T01:52:02.064Z,0.00
2023-05-05T01:53:02.084Z,0.00
2023-05-05T01:54:02.053Z,0.00
2023-05-05T01:55:02.043Z,0.00
2023-05-05T01:56:02.037Z,0.00
2023-05-05T01:57:02.031Z,0.00
2023-05-05T01:58:01.987Z,0.00
2023-05-05T01:59:02.019Z,0.00
2023-05-05T02:00:02.039Z,0.00
2023-05-05T02:01:01.988Z,0.00
2023-05-05T02:02:01.974Z,0.00
2023-05-05T02:03:02.042Z,0.00
2023-05-05T02:04:01.943Z,0.00
2023-05-05T02:05:01.926Z,0.00
2023-05-05T02:06:01.924Z,0.00
2023-05-05T02:07:01.871Z,0.00
2023-05-05T02:08:01.870Z,0.00
2023-05-05T02:09:01.887Z,0.00
2023-05-05T02:10:01.871Z,0.00
2023-05-05T02:11:01.820Z,0.00
2023-05-05T02:12:01.816Z,0.00
2023-05-05T02:13:01.795Z,0.00
2023-05-05T02:14:01.840Z,0.00
2023-05-05T02:15:01.783Z,0.00
2023-05-05T02:16:01.843Z,0.00
2023-05-05T02:17:01.750Z,0.00
2023-05-05T02:18:01.788Z,0.00
2023-05-05T02:19:01.749Z,0.00
2023-05-05T02:20:01.805Z,0.00
2023-05-05T02:21:01.729Z,0.00
2023-05-05T02:22:01.685Z,0.00
2023-05-05T02:23:01.712Z,0.00
2023-05-05T02:24:01.702Z,0.00
2023-05-05T02:25:01.671Z,0.00
2023-05-05T02:26:01.650Z,0.00
2023-05-05T02:27:01.642Z,0.00
2023-05-05T02:28:01.619Z,0.00
2023-05-05T02:29:01.598Z,0.00
2023-05-05T02:30:01.621Z,0.00
2023-05-05T02:31:01.588Z,0.00
2023-05-05T02:32:01.562Z,0.00
2023-05-05T02:33:01.578Z,0.00
2023-05-05T02:34:01.530Z,0.00
2023-05-05T02:35:01.539Z,0.00
2023-05-05T02:36:01.554Z,0.00
2023-05-05T02:37:01.501Z,0.00
2023-05-05T02:38:01.498Z,0.00
2023-05-05T02:39:01.484Z,0.00
2023-05-05T02:40:01.474Z,0.00
2023-05-05T02:41:01.444Z,0.00
2023-05-05T02:42:01.453Z,0.00
2023-05-05T02:43:01.442Z,0.00
2023-05-05T02:44:01.426Z,0.00
2023-05-05T02:45:01.394Z,0.00
2023-05-05T02:46:01.425Z,0.00
2023-05-05T02:47:01.398Z,0.00
2023-05-05T02:48:01.444Z,0.00
2023-05-05T02:49:01.351Z,0.00
2023-05-05T02:50:01.346Z,0.00
2023-05-05T02:51:01.315Z,0.00
2023-05-05T02:52:01.309Z,0.00
2023-05-05T02:53:01.308Z,0.00
2023-05-05T02:54:01.313Z,0.00
2023-05-05T02:55:01.273Z,0.00
2023-05-05T02:56:01.292Z,0.00
2023-05-05T02:57:01.265Z,0.00
2023-05-05T02:58:01.232Z,0.00
2023-05-05T02:59:01.234Z,0.00
2023-05-05T03:00:01.201Z,0.00
2023-05-05T03:01:01.195Z,0.00
2023-05-05T03:02:01.188Z,0.00
2023-05-05T03:03:01.247Z,0.00
2023-05-05T03:04:01.149Z,0.00
2023-05-05T03:05:01.152Z,0.00
2023-05-05T03:06:01.138Z,0.00
2023-05-05T03:07:01.109Z,0.00
2023-05-05T03:08:01.184Z,0.00
2023-05-05T03:09:01.093Z,0.00
2023-05-05T03:10:01.076Z,0.00
2023-05-05T03:11:01.105Z,0.00
2023-05-05T03:12:01.058Z,0.00
2023-05-05T03:13:01.113Z,0.00
2023-05-05T03:14:01.045Z,0.00
2023-05-05T03:15:01.006Z,0.00
2023-05-05T03:16:01.018Z,0.00
2023-05-05T03:17:01.002Z,0.00
2023-05-05T03:18:00.990Z,0.00
2023-05-05T03:19:00.954Z,0.00
2023-05-05T03:20:03.458Z,0.00
2023-05-05T03:21:00.941Z,0.00
2023-05-05T03:22:00.959Z,0.00
2023-05-05T03:23:00.924Z,0.00
2023-05-05T03:24:00.918Z,0.00
2023-05-05T03:25:00.875Z,0.00
2023-05-05T03:26:00.875Z,0.00
2023-05-05T03:27:00.870Z,0.00
2023-05-05T03:28:00.857Z,0.00
2023-05-05T03:29:00.850Z,0.00
2023-05-05T03:30:00.842Z,0.00
2023-05-05T03:31:00.801Z,0.00
2023-05-05T03:32:00.794Z,0.00
2023-05-05T03:33:00.873Z,0.00
2023-05-05T03:34:00.769Z,0.00
2023-05-05T03:35:00.797Z,0.00
2023-05-05T03:36:00.746Z,0.00
2023-05-05T03:37:00.729Z,0.00
2023-05-05T03:38:00.710Z,0.00
2023-05-05T03:39:00.708Z,0.00
2023-05-05T03:40:00.679Z,0.00
2023-05-05T03:41:00.695Z,0.00
2023-05-05T03:42:00.674Z,0.00
2023-05-05T03:43:00.686Z,0.00
2023-05-05T03:44:00.656Z,0.00
2023-05-05T03:45:00.630Z,0.00
2023-05-05T03:46:00.687Z,0.00
2023-05-05T03:47:00.618Z,0.00
2023-05-05T03:48:00.660Z,0.00
2023-05-05T03:49:00.587Z,0.00
2023-05-05T03:50:00.628Z,0.00
2023-05-05T03:51:00.609Z,0.00
2023-05-05T03:52:00.533Z,5.62
2023-05-05T03:53:00.588Z,5.62
2023-05-05T03:54:00.516Z,5.62
2023-05-05T03:55:00.500Z,5.62
2023-05-05T03:56:00.543Z,5.62
2023-05-05T03:57:00.485Z,5.62
2023-05-05T03:58:00.485Z,11.25
2023-05-05T03:59:00.463Z,11.25
2023-05-05T04:00:00.444Z,11.25
2023-05-05T04:01:00.446Z,16.88
2023-05-05T04:02:00.528Z,16.88
2023-05-05T04:03:00.502Z,16.88
2023-05-05T04:04:00.408Z,22.50
2023-05-05T04:05:00.378Z,22.50
2023-05-05T04:06:00.386Z,22.50
2023-05-05T04:07:00.344Z,28.12
2023-05-05T04:08:00.372Z,28.12
2023-05-05T04:09:00.326Z,28.12
2023-05-05T04:10:00.348Z,33.75
2023-05-05T04:11:00.300Z,39.38
2023-05-05T04:12:00.290Z,39.38
2023-05-05T04:13:00.320Z,45.00
2023-05-05T04:14:00.264Z,45.00
2023-05-05T04:15:00.282Z,50.62
2023-05-05T04:16:00.323Z,50.62
2023-05-05T04:17:00.229Z,56.25
2023-05-05T04:18:00.267Z,61.88
2023-05-05T04:19:00.240Z,61.88
2023-05-05T04:20:00.217Z,67.50
2023-05-05T04:21:00.202Z,73.12
2023-05-05T04:22:00.203Z,73.12
2023-05-05T04:23:00.156Z,73.12
2023-05-05T04:24:00.182Z,78.75
2023-05-05T04:25:00.241Z,78.75
2023-05-05T04:26:00.163Z,84.38
2023-05-05T04:27:00.106Z,90.00
2023-05-05T04:28:00.145Z,106.88
2023-05-05T04:29:00.189Z,106.88
2023-05-05T04:30:00.060Z,118.12
2023-05-05T04:31:00.123Z,123.75
2023-05-05T04:32:00.056Z,123.75
2023-05-05T04:33:00.068Z,123.75
2023-05-05T04:34:00.003Z,118.12
2023-05-05T04:34:59.996Z,123.75
2023-05-05T04:35:59.976Z,123.75
2023-05-05T04:36:59.991Z,123.75
2023-05-05T04:37:59.962Z,123.75
2023-05-05T04:38:59.969Z,123.75
2023-05-05T04:39:59.921Z,129.38
2023-05-05T04:40:59.966Z,135.00
2023-05-05T04:41:59.933Z,140.62
2023-05-05T04:42:59.890Z,146.25
2023-05-05T04:43:59.880Z,146.25
2023-05-05T04:44:59.889Z,146.25
2023-05-05T04:45:59.849Z,151.88
2023-05-05T04:46:59.883Z,157.50
2023-05-05T04:47:59.916Z,168.75
2023-05-05T04:48:59.846Z,180.00
2023-05-05T04:49:59.802Z,196.88
2023-05-05T04:50:59.785Z,202.50
2023-05-05T04:51:59.784Z,213.75
2023-05-05T04:52:59.780Z,213.75
2023-05-05T04:53:59.745Z,213.75
2023-05-05T04:54:59.750Z,219.38
2023-05-05T04:55:59.738Z,230.62
2023-05-05T04:56:59.727Z,236.25
2023-05-05T04:57:59.699Z,236.25
2023-05-05T04:58:59.705Z,236.25
2023-05-05T04:59:59.664Z,236.25
2023-05-05T05:00:59.680Z,230.62
2023-05-05T05:01:59.704Z,236.25
2023-05-05T05:02:59.715Z,230.62
2023-05-05T05:03:59.644Z,225.00
2023-05-05T05:04:59.634Z,225.00
2023-05-05T05:05:59.598Z,230.62
2023-05-05T05:06:59.587Z,236.25
2023-05-05T05:07:59.575Z,253.12
2023-05-05T05:08:59.557Z,270.00
2023-05-05T05:09:59.594Z,286.88
2023-05-05T05:10:59.553Z,298.12
2023-05-05T05:11:59.518Z,309.38
2023-05-05T05:12:59.554Z,320.62
2023-05-05T05:13:59.512Z,331.88
2023-05-05T05:14:59.479Z,337.50
2023-05-05T05:15:59.562Z,343.12
2023-05-05T05:16:59.509Z,343.12
2023-05-05T05:17:59.495Z,343.12
2023-05-05T05:19:01.480Z,343.12
2023-05-05T05:19:59.447Z,343.12
2023-05-05T05:20:59.413Z,343.12
2023-05-05T05:21:59.432Z,348.75
2023-05-05T05:22:59.376Z,354.38
2023-05-05T05:23:59.364Z,399.38
2023-05-05T05:24:59.351Z,405.00
2023-05-05T05:25:59.337Z,410.62
2023-05-05T05:26:59.390Z,410.62
2023-05-05T05:28:09.386Z,388.12
2023-05-05T05:28:59.331Z,388.12
2023-05-05T05:29:59.279Z,410.62
2023-05-05T05:30:59.278Z,433.12
2023-05-05T05:31:59.287Z,421.88
2023-05-05T05:32:59.300Z,455.62
2023-05-05T05:33:59.256Z,444.38
2023-05-05T05:34:59.282Z,450.00
2023-05-05T05:35:59.203Z,466.88
2023-05-05T05:36:59.199Z,506.25
2023-05-05T05:37:59.189Z,528.75
2023-05-05T05:38:59.180Z,528.75
2023-05-05T05:39:59.164Z,506.25
2023-05-05T05:40:59.158Z,500.62
2023-05-05T05:41:59.149Z,478.12
2023-05-05T05:42:59.127Z,483.75
2023-05-05T05:43:59.109Z,478.12
2023-05-05T05:44:59.135Z,472.50
2023-05-05T05:45:59.081Z,472.50
2023-05-05T05:46:59.075Z,478.12
2023-05-05T05:47:59.087Z,478.12
2023-05-05T05:48:59.064Z,483.75
2023-05-05T05:49:59.056Z,489.38
2023-05-05T05:50:59.006Z,495.00
2023-05-05T05:51:59.004Z,511.88
2023-05-05T05:52:59.009Z,528.75
2023-05-05T05:53:59.101Z,545.62
2023-05-05T05:54:59.011Z,551.25
2023-05-05T05:55:58.955Z,556.88
2023-05-05T05:56:58.935Z,562.50
2023-05-05T05:57:58.931Z,568.12
2023-05-05T05:58:58.936Z,568.12
2023-05-05T06:00:04.763Z,573.75
2023-05-05T06:00:58.896Z,579.38
2023-05-05T06:01:58.913Z,590.62
2023-05-05T06:02:59.034Z,607.50
2023-05-05T06:03:58.923Z,613.12
2023-05-05T06:04:58.904Z,624.38
2023-05-05T06:05:58.852Z,635.62
2023-05-05T06:06:58.808Z,635.62
2023-05-05T06:07:58.812Z,658.12
2023-05-05T06:08:58.797Z,686.25
2023-05-05T06:10:01.320Z,720.00
2023-05-05T06:10:58.775Z,832.50
2023-05-05T06:11:58.759Z,871.88
2023-05-05T06:12:58.814Z,911.25
2023-05-05T06:13:58.732Z,939.38
2023-05-05T06:14:58.743Z,956.25
2023-05-05T06:15:58.709Z,956.25
2023-05-05T06:16:58.692Z,956.25
2023-05-05T06:17:58.744Z,967.50
2023-05-05T06:18:58.694Z,956.25
2023-05-05T06:19:58.640Z,939.38
2023-05-05T06:20:58.676Z,860.62
2023-05-05T06:21:58.634Z,860.62
2023-05-05T06:22:58.631Z,849.38
2023-05-05T06:23:58.622Z,843.75
2023-05-05T06:24:58.599Z,843.75
2023-05-05T06:25:58.595Z,821.25
2023-05-05T06:26:58.573Z,810.00
2023-05-05T06:27:58.539Z,810.00
2023-05-05T06:28:58.563Z,793.12
2023-05-05T06:29:58.542Z,776.25
2023-05-05T06:30:58.546Z,759.38
2023-05-05T06:31:58.501Z,742.50
2023-05-05T06:32:58.516Z,725.62
2023-05-05T06:33:58.469Z,714.38
2023-05-05T06:34:58.489Z,804.38
2023-05-05T06:35:58.457Z,770.62
2023-05-05T06:36:58.438Z,798.75
2023-05-05T06:37:58.428Z,815.62
2023-05-05T06:38:58.423Z,838.12
2023-05-05T06:39:58.402Z,838.12
2023-05-05T06:40:58.428Z,849.38
2023-05-05T06:41:58.402Z,916.88
2023-05-05T06:42:58.350Z,933.75
2023-05-05T06:43:58.347Z,945.00
2023-05-05T06:44:58.396Z,945.00
2023-05-05T06:45:58.331Z,945.00
2023-05-05T06:46:58.370Z,933.75
2023-05-05T06:47:58.335Z,905.62
2023-05-05T06:48:58.284Z,905.62
2023-05-05T06:49:58.301Z,905.62
2023-05-05T06:50:58.269Z,905.62
2023-05-05T06:51:58.288Z,894.38
2023-05-05T06:52:58.263Z,888.75
2023-05-05T06:53:58.226Z,849.38
2023-05-05T06:54:58.210Z,810.00
2023-05-05T06:55:58.198Z,838.12
2023-05-05T06:56:59.565Z,883.12
2023-05-05T06:57:58.175Z,928.12
2023-05-05T06:58:58.164Z,967.50
2023-05-05T06:59:58.152Z,995.62
2023-05-05T07:00:58.187Z,973.12
2023-05-05T07:01:58.158Z,1023.75
2023-05-05T07:02:58.169Z,984.38
2023-05-05T07:03:58.133Z,990.00
2023-05-05T07:04:58.102Z,1057.50
2023-05-05T07:05:58.064Z,1108.12
2023-05-05T07:06:58.063Z,1170.00
2023-05-05T07:07:58.065Z,1215.00
2023-05-05T07:08:58.060Z,1288.12
2023-05-05T07:09:58.019Z,1293.75
2023-05-05T07:10:58.056Z,1147.50
2023-05-05T07:11:57.997Z,1170.00
2023-05-05T07:12:58.024Z,1597.50
2023-05-05T07:13:57.999Z,1428.75
2023-05-05T07:14:57.995Z,1170.00
2023-05-05T07:15:57.968Z,2025.00
2023-05-05T07:16:58.168Z,2295.00
2023-05-05T07:17:58.252Z,2176.88
2023-05-05T07:18:57.990Z,1755.00
2023-05-05T07:19:57.897Z,1558.12
2023-05-05T07:20:57.936Z,2401.88
2023-05-05T07:21:58.000Z,2671.88
2023-05-05T07:22:57.872Z,1423.12
2023-05-05T07:23:57.885Z,1378.12
2023-05-05T07:24:57.853Z,1395.00
2023-05-05T07:25:57.891Z,1479.38
2023-05-05T07:26:57.835Z,1541.25
2023-05-05T07:27:57.823Z,2143.12
2023-05-05T07:28:57.816Z,1890.00
2023-05-05T07:29:57.813Z,2688.75
2023-05-05T07:30:57.802Z,2030.62
2023-05-05T07:31:57.800Z,1535.62
2023-05-05T07:32:57.794Z,1378.12
2023-05-05T07:33:57.758Z,1310.62
2023-05-05T07:34:57.738Z,1440.00
2023-05-05T07:35:57.750Z,2086.88
2023-05-05T07:36:57.707Z,1485.00
2023-05-05T07:37:57.685Z,1271.25
2023-05-05T07:38:57.687Z,1282.50
2023-05-05T07:39:57.676Z,1299.38
2023-05-05T07:40:57.671Z,1968.75
2023-05-05T07:41:57.664Z,1434.38
2023-05-05T07:42:57.635Z,1248.75
2023-05-05T07:43:57.615Z,1130.62
2023-05-05T07:44:57.592Z,1085.62
2023-05-05T07:45:57.642Z,1057.50
2023-05-05T07:46:57.584Z,1046.25
2023-05-05T07:47:57.598Z,1018.12
2023-05-05T07:48:57.577Z,973.12
2023-05-05T07:49:57.557Z,945.00
2023-05-05T07:50:57.584Z,933.75
2023-05-05T07:51:57.517Z,978.75
2023-05-05T07:53:06.239Z,1068.75
2023-05-05T07:53:57.495Z,1153.12
2023-05-05T07:54:57.501Z,1265.62
2023-05-05T07:55:57.473Z,1395.00
2023-05-05T07:56:57.489Z,1608.75
2023-05-05T07:57:57.437Z,3183.75
2023-05-05T07:58:57.440Z,1783.12
2023-05-05T07:59:57.425Z,3138.75
2023-05-05T08:00:57.429Z,3324.38
2023-05-05T08:01:57.426Z,2002.50
2023-05-05T08:02:57.474Z,1918.12
2023-05-05T08:03:57.449Z,1698.75
2023-05-05T08:04:57.378Z,1625.62
2023-05-05T08:05:57.348Z,1597.50
2023-05-05T08:06:57.354Z,1535.62
2023-05-05T08:07:57.350Z,1434.38
2023-05-05T08:08:57.336Z,1338.75
2023-05-05T08:09:57.338Z,1271.25
2023-05-05T08:10:57.319Z,1310.62
2023-05-05T08:11:57.278Z,1243.12
2023-05-05T08:12:57.301Z,1170.00
2023-05-05T08:13:57.268Z,1130.62
2023-05-05T08:14:57.262Z,1102.50
2023-05-05T08:15:57.254Z,1091.25
2023-05-05T08:16:57.237Z,1068.75
2023-05-05T08:17:57.260Z,1018.12
2023-05-05T08:18:57.198Z,956.25
2023-05-05T08:19:57.231Z,877.50
2023-05-05T08:20:57.186Z,821.25
2023-05-05T08:21:58.869Z,781.88
2023-05-05T08:22:57.184Z,770.62
2023-05-05T08:23:57.132Z,776.25
2023-05-05T08:24:57.127Z,787.50
2023-05-05T08:25:57.133Z,793.12
2023-05-05T08:26:57.117Z,804.38
2023-05-05T08:27:57.098Z,826.88
2023-05-05T08:28:57.077Z,855.00
2023-05-05T08:29:57.080Z,900.00
2023-05-05T08:30:57.068Z,950.62
2023-05-05T08:31:57.181Z,1063.12
2023-05-05T08:32:57.116Z,1018.12
2023-05-05T08:33:57.043Z,1051.88
2023-05-05T08:34:57.018Z,1085.62
2023-05-05T08:35:57.009Z,1147.50
2023-05-05T08:36:56.984Z,1237.50
2023-05-05T08:37:59.128Z,1276.88
2023-05-05T08:38:56.956Z,1231.88
2023-05-05T08:39:56.964Z,1186.88
2023-05-05T08:40:56.948Z,1164.38
2023-05-05T08:41:56.957Z,1164.38
2023-05-05T08:42:56.918Z,1175.62
2023-05-05T08:43:56.925Z,1198.12
2023-05-05T08:44:58.851Z,1231.88
2023-05-05T08:45:56.898Z,1271.25
2023-05-05T08:46:56.946Z,1305.00
2023-05-05T08:47:56.942Z,1372.50
2023-05-05T08:48:56.867Z,1389.38
2023-05-05T08:49:56.832Z,1400.62
2023-05-05T08:50:58.686Z,1417.50
2023-05-05T08:51:56.797Z,1440.00
2023-05-05T08:52:56.849Z,1479.38
2023-05-05T08:53:56.782Z,1513.12
2023-05-05T08:54:56.795Z,1558.12
2023-05-05T08:55:56.746Z,1614.38
2023-05-05T08:56:56.752Z,1710.00
2023-05-05T08:57:56.733Z,1816.88
2023-05-05T08:58:56.723Z,1957.50
2023-05-05T08:59:56.718Z,2047.50
2023-05-05T09:00:56.750Z,2238.75
2023-05-05T09:01:56.742Z,2486.25
2023-05-05T09:02:56.930Z,2452.50
2023-05-05T09:03:56.660Z,2216.25
2023-05-05T09:04:56.641Z,2188.12
2023-05-05T09:05:56.650Z,2666.25
2023-05-05T09:06:56.626Z,2936.25
2023-05-05T09:07:56.643Z,4826.25
2023-05-05T09:08:58.960Z,4753.12
2023-05-05T09:09:56.581Z,4876.88
2023-05-05T09:10:56.590Z,4775.62
2023-05-05T09:11:56.624Z,4950.00
2023-05-05T09:12:56.594Z,4966.88
2023-05-05T09:13:56.628Z,4950.00
2023-05-05T09:14:58.937Z,4854.38
2023-05-05T09:15:56.588Z,4871.25
2023-05-05T09:16:56.597Z,4803.75
2023-05-05T09:17:56.537Z,4696.88
2023-05-05T09:18:56.548Z,4511.25
2023-05-05T09:19:56.504Z,4370.62
2023-05-05T09:20:58.132Z,4151.25
2023-05-05T09:21:56.486Z,4061.25
2023-05-05T09:22:56.519Z,4021.88
2023-05-05T09:23:58.541Z,3881.25
2023-05-05T09:24:56.461Z,3892.50
2023-05-05T09:25:56.498Z,3841.88
2023-05-05T09:26:58.548Z,3830.62
2023-05-05T09:27:56.459Z,3785.62
2023-05-05T09:28:56.434Z,3701.25
2023-05-05T09:29:56.447Z,3526.88
2023-05-05T09:30:56.559Z,3678.75
2023-05-05T09:31:56.480Z,3735.00
2023-05-05T09:32:56.454Z,3796.88
2023-05-05T09:33:56.384Z,3622.50
2023-05-05T09:34:56.400Z,3757.50
2023-05-05T09:35:56.557Z,3881.25
2023-05-05T09:36:56.400Z,3841.88
2023-05-05T09:37:56.435Z,3864.38
2023-05-05T09:38:58.293Z,4027.50
2023-05-05T09:39:56.406Z,4100.62
2023-05-05T09:40:56.339Z,4173.75
2023-05-05T09:41:56.334Z,4359.38
2023-05-05T09:42:56.320Z,4055.62
2023-05-05T09:43:56.316Z,4325.62
2023-05-05T09:44:57.837Z,4286.25
2023-05-05T09:45:56.325Z,4252.50
2023-05-05T09:46:56.283Z,4258.12
2023-05-05T09:47:59.672Z,4117.50
2023-05-05T09:48:56.318Z,4066.88
2023-05-05T09:49:56.252Z,4207.50
2023-05-05T09:50:56.239Z,4151.25
2023-05-05T09:51:56.281Z,4201.88
2023-05-05T09:52:56.286Z,4089.38
2023-05-05T09:53:56.229Z,4055.62
2023-05-05T09:54:56.281Z,3836.25
2023-05-05T09:55:56.218Z,3341.25
2023-05-05T09:56:56.194Z,3729.38
2023-05-05T09:57:56.352Z,3746.25
2023-05-05T09:58:57.617Z,3504.38
2023-05-05T09:59:56.172Z,3155.62
2023-05-05T10:00:56.230Z,3099.38
2023-05-05T10:01:56.190Z,2896.88
2023-05-05T10:02:56.171Z,3048.75
2023-05-05T10:03:56.166Z,3150.00
2023-05-05T10:04:56.153Z,2880.00
2023-05-05T10:05:56.141Z,2992.50
2023-05-05T10:06:56.148Z,2885.62
2023-05-05T10:07:56.134Z,2986.88
2023-05-05T10:08:56.113Z,2840.62
2023-05-05T10:09:56.112Z,2536.88
2023-05-05T10:10:56.100Z,2401.88
2023-05-05T10:11:56.104Z,2700.00
2023-05-05T10:12:56.085Z,2486.25
2023-05-05T10:13:56.061Z,2340.00
2023-05-05T10:14:56.050Z,2486.25
2023-05-05T10:15:56.130Z,2581.88
2023-05-05T10:16:56.048Z,2576.25
2023-05-05T10:18:07.062Z,2880.00
2023-05-05T10:18:56.025Z,3206.25
2023-05-05T10:19:55.998Z,3335.62
2023-05-05T10:20:55.994Z,3358.12
2023-05-05T10:21:55.999Z,3414.38
2023-05-05T10:22:55.983Z,3375.00
2023-05-05T10:23:56.005Z,3532.50
2023-05-05T10:24:55.965Z,3673.12
2023-05-05T10:25:55.943Z,3858.75
2023-05-05T10:26:55.998Z,3915.00
2023-05-05T10:27:55.939Z,3920.62
2023-05-05T10:28:55.907Z,3819.38
2023-05-05T10:29:55.946Z,3903.75
2023-05-05T10:30:55.913Z,4016.25
2023-05-05T10:31:55.936Z,3746.25
2023-05-05T10:33:09.081Z,3600.00
2023-05-05T10:33:55.965Z,3706.88
2023-05-05T10:34:55.859Z,3678.75
2023-05-05T10:35:55.921Z,3706.88
2023-05-05T10:36:55.854Z,3616.88
2023-05-05T10:37:55.842Z,3391.88
2023-05-05T10:38:55.890Z,3200.62
2023-05-05T10:39:55.817Z,2902.50
2023-05-05T10:40:55.854Z,2880.00
2023-05-05T10:41:55.850Z,2874.38
2023-05-05T10:42:55.797Z,3420.00
2023-05-05T10:43:55.784Z,3628.12
2023-05-05T10:44:55.836Z,3605.62
2023-05-05T10:45:55.868Z,3515.62
2023-05-05T10:46:55.810Z,3605.62
2023-05-05T10:47:55.800Z,3515.62
2023-05-05T10:48:55.776Z,3605.62
2023-05-05T10:49:55.755Z,3341.25
2023-05-05T10:50:55.793Z,2998.12
2023-05-05T10:51:55.723Z,3048.75
2023-05-05T10:52:55.724Z,2930.62
2023-05-05T10:53:55.767Z,3026.25
2023-05-05T10:54:55.769Z,3352.50
2023-05-05T10:55:55.707Z,3470.62
2023-05-05T10:56:55.754Z,3150.00
2023-05-05T10:57:55.705Z,3369.38
2023-05-05T10:59:00.058Z,3285.00
2023-05-05T10:59:55.648Z,3228.75
2023-05-05T11:00:55.691Z,3211.88
2023-05-05T11:01:55.622Z,3363.75
2023-05-05T11:02:55.738Z,3240.00
2023-05-05T11:03:55.645Z,3020.62
2023-05-05T11:04:55.639Z,2587.50
2023-05-05T11:05:55.595Z,2536.88
2023-05-05T11:06:55.620Z,2694.38
2023-05-05T11:07:55.598Z,2947.50
2023-05-05T11:08:55.606Z,2840.62
2023-05-05T11:09:55.627Z,3031.88
2023-05-05T11:10:55.584Z,2998.12
2023-05-05T11:11:55.579Z,3076.88
2023-05-05T11:12:55.614Z,3093.75
2023-05-05T11:13:55.575Z,2947.50
2023-05-05T11:14:55.539Z,2835.00
2023-05-05T11:15:55.542Z,3020.62
2023-05-05T11:16:55.679Z,2919.38
2023-05-05T11:17:55.557Z,2880.00
2023-05-05T11:18:55.481Z,2801.25
2023-05-05T11:19:55.558Z,2823.75
2023-05-05T11:20:55.475Z,2694.38
2023-05-05T11:21:55.488Z,2278.12
2023-05-05T11:22:55.436Z,2160.00
2023-05-05T11:23:55.435Z,2480.62
2023-05-05T11:24:55.405Z,2542.50
2023-05-05T11:25:55.418Z,2705.62
2023-05-05T11:26:55.425Z,2902.50
2023-05-05T11:27:55.418Z,2829.38
2023-05-05T11:28:55.392Z,2868.75
2023-05-05T11:29:55.406Z,2829.38
2023-05-05T11:30:55.440Z,2722.50
2023-05-05T11:31:55.367Z,2756.25
2023-05-05T11:32:55.413Z,2722.50
2023-05-05T11:33:55.338Z,2536.88
2023-05-05T11:34:55.339Z,2638.12
2023-05-05T11:35:55.299Z,2525.62
2023-05-05T11:36:55.313Z,2587.50
2023-05-05T11:37:55.295Z,2683.12
2023-05-05T11:38:55.538Z,2666.25
2023-05-05T11:39:56.324Z,2581.88
2023-05-05T11:40:55.270Z,2683.12
2023-05-05T11:41:55.262Z,2733.75
2023-05-05T11:42:55.279Z,2694.38
2023-05-05T11:43:55.283Z,2351.25
2023-05-05T11:44:55.260Z,2368.12
2023-05-05T11:45:55.242Z,2396.25
2023-05-05T11:46:55.208Z,2373.75
2023-05-05T11:47:55.222Z,2266.88
2023-05-05T11:48:55.178Z,2137.50
2023-05-05T11:49:55.162Z,2086.88
2023-05-05T11:50:55.179Z,2103.75
2023-05-05T11:51:55.149Z,2115.00
2023-05-05T11:52:55.166Z,2086.88
2023-05-05T11:53:55.978Z,2109.38
2023-05-05T11:54:55.130Z,2143.12
2023-05-05T11:55:55.103Z,2053.12
2023-05-05T11:56:55.086Z,2176.88
2023-05-05T11:57:55.097Z,2244.38
2023-05-05T11:58:55.094Z,2250.00
2023-05-05T11:59:55.105Z,2272.50
2023-05-05T12:00:55.095Z,2227.50
2023-05-05T12:01:55.023Z,2193.75
2023-05-05T12:02:55.049Z,2210.62
2023-05-05T12:03:55.302Z,2289.38
2023-05-05T12:04:55.145Z,2368.12
2023-05-05T12:05:55.008Z,2317.50
2023-05-05T12:06:55.004Z,2283.75
2023-05-05T12:07:54.978Z,2244.38
2023-05-05T12:08:54.980Z,2165.62
2023-05-05T12:09:54.958Z,2086.88
2023-05-05T12:10:55.016Z,2137.50
2023-05-05T12:11:54.938Z,2238.75
2023-05-05T12:12:55.675Z,2182.50
2023-05-05T12:13:54.924Z,2233.12
2023-05-05T12:14:54.897Z,2413.12
2023-05-05T12:15:54.977Z,2351.25
2023-05-05T12:16:54.927Z,2227.50
2023-05-05T12:17:54.883Z,2221.88
2023-05-05T12:18:54.859Z,2126.25
2023-05-05T12:19:54.857Z,2362.50
2023-05-05T12:20:54.845Z,2328.75
2023-05-05T12:21:54.837Z,2244.38
2023-05-05T12:22:54.829Z,2148.75
2023-05-05T12:23:54.823Z,2278.12
2023-05-05T12:24:55.102Z,2216.25
2023-05-05T12:25:54.791Z,2171.25
2023-05-05T12:26:54.781Z,1996.88
2023-05-05T12:27:54.776Z,1710.00
2023-05-05T12:28:54.775Z,1614.38
2023-05-05T12:29:54.756Z,1569.38
2023-05-05T12:30:55.151Z,1530.00
2023-05-05T12:31:54.736Z,1513.12
2023-05-05T12:32:54.789Z,1501.88
2023-05-05T12:33:54.712Z,1496.25